Thrali, Washington
Current Conditions -  °F | °C
As of 12:53 PM on Friday 28 Nov 2014 (Local Time) from KELN Reporting Station
Broken Clouds Broken Clouds  
Wind Chill: 52°   Ceiling: 10000
Heat Index: 52°   Visibility: 10mi
Dew Point: 44°   Wind: 5mph
Humidity: 74%   Direction: 110°ESE
Pressure: 29.36"   Gusts: NA
Location:  47.0155°N, 120.311°W
Report Text: KELN 282053Z AUTO 11004KT 10SM FEW070 BKN100 BKN120 11/07 A2936 RMK AO2 RAB05E39 SLP946 P0000 60000 T01110067 58038
Loading
Personal Weather Stations






























Interactive Weather Map New forecast layout! Learn more

10-Day Weather Forecast

Advertisements
Track Severe Weather on mobile